Terminal Aerodrome Forecast
Issued by NWS

Home | Current Version | Previous Version | Text Only | Print | Product List | Glossary On
Versions: 1 2 3 4 5 6 7 8 9 10 11 12 13 14 15 16 17 18
000
FTUS45 KGJT 230533
TAFVEL
TAF
KVEL 230533Z 2306/2406 28020G30KT P6SM VCSH SCT060 OVC100
     FM230700 04012G20KT P6SM VCSH SCT050 BKN100
     FM231400 03012KT P6SM SCT150
     FM231700 24008G18KT P6SM SCT150
     FM240200 31005KT P6SM SKC=

USA.gov is the U.S. government's official web portal to all federal, state and local government web resources and services.